sensor_id;sensor_type;location;lat;lon;timestamp;temperature;humidity
71184;DHT22;58887;51.980;4.464;2023-05-10T00:01:33;13.13;86.37
71184;DHT22;58887;51.980;4.464;2023-05-10T00:03:59;13.06;86.36
71184;DHT22;58887;51.980;4.464;2023-05-10T00:06:24;13.09;86.37
71184;DHT22;58887;51.980;4.464;2023-05-10T00:08:51;13.12;86.30
71184;DHT22;58887;51.980;4.464;2023-05-10T00:11:16;13.05;86.26
71184;DHT22;58887;51.980;4.464;2023-05-10T00:13:42;13.06;86.55
71184;DHT22;58887;51.980;4.464;2023-05-10T00:16:08;13.09;86.36
71184;DHT22;58887;51.980;4.464;2023-05-10T00:18:33;13.16;86.30
71184;DHT22;58887;51.980;4.464;2023-05-10T00:20:59;13.12;86.44
71184;DHT22;58887;51.980;4.464;2023-05-10T00:23:24;13.08;86.58
71184;DHT22;58887;51.980;4.464;2023-05-10T00:25:50;13.12;86.71
71184;DHT22;58887;51.980;4.464;2023-05-10T00:28:15;13.06;86.68
71184;DHT22;58887;51.980;4.464;2023-05-10T00:30:41;13.05;87.06
71184;DHT22;58887;51.980;4.464;2023-05-10T00:33:06;13.16;87.07
71184;DHT22;58887;51.980;4.464;2023-05-10T00:35:32;13.13;87.05
71184;DHT22;58887;51.980;4.464;2023-05-10T00:37:57;13.17;87.21
71184;DHT22;58887;51.980;4.464;2023-05-10T00:40:23;13.20;87.07
71184;DHT22;58887;51.980;4.464;2023-05-10T00:42:49;13.24;86.80
71184;DHT22;58887;51.980;4.464;2023-05-10T00:45:15;13.23;87.05
71184;DHT22;58887;51.980;4.464;2023-05-10T00:47:40;13.24;87.12
71184;DHT22;58887;51.980;4.464;2023-05-10T00:50:06;13.22;87.05
71184;DHT22;58887;51.980;4.464;2023-05-10T00:52:32;13.12;87.47
71184;DHT22;58887;51.980;4.464;2023-05-10T00:54:58;13.22;87.65
71184;DHT22;58887;51.980;4.464;2023-05-10T00:57:24;13.27;87.19
71184;DHT22;58887;51.980;4.464;2023-05-10T00:59:50;13.17;87.51
71184;DHT22;58887;51.980;4.464;2023-05-10T01:02:15;13.15;87.72
71184;DHT22;58887;51.980;4.464;2023-05-10T01:04:42;13.13;87.84
71184;DHT22;58887;51.980;4.464;2023-05-10T01:07:08;13.19;87.83
71184;DHT22;58887;51.980;4.464;2023-05-10T01:09:34;13.16;87.84
71184;DHT22;58887;51.980;4.464;2023-05-10T01:12:01;13.10;88.18
71184;DHT22;58887;51.980;4.464;2023-05-10T01:14:27;13.17;88.14
71184;DHT22;58887;51.980;4.464;2023-05-10T01:16:54;13.24;87.70
71184;DHT22;58887;51.980;4.464;2023-05-10T01:19:23;13.29;87.69
71184;DHT22;58887;51.980;4.464;2023-05-10T01:22:04;13.27;87.58
71184;DHT22;58887;51.980;4.464;2023-05-10T01:33:29;13.51;87.17
71184;DHT22;58887;51.980;4.464;2023-05-10T01:36:05;13.56;86.87
71184;DHT22;58887;51.980;4.464;2023-05-10T01:38:42;13.56;86.81
71184;DHT22;58887;51.980;4.464;2023-05-10T01:44:16;13.70;86.63
71184;DHT22;58887;51.980;4.464;2023-05-10T01:46:50;13.66;86.69
71184;DHT22;58887;51.980;4.464;2023-05-10T01:49:28;13.77;86.53
71184;DHT22;58887;51.980;4.464;2023-05-10T01:52:00;13.70;86.51
71184;DHT22;58887;51.980;4.464;2023-05-10T01:54:32;13.77;86.51
71184;DHT22;58887;51.980;4.464;2023-05-10T01:57:03;13.82;86.37
71184;DHT22;58887;51.980;4.464;2023-05-10T01:59:34;13.77;86.54
71184;DHT22;58887;51.980;4.464;2023-05-10T02:02:06;13.70;86.47
71184;DHT22;58887;51.980;4.464;2023-05-10T02:04:35;13.54;87.00
71184;DHT22;58887;51.980;4.464;2023-05-10T02:07:05;13.54;87.17
71184;DHT22;58887;51.980;4.464;2023-05-10T02:09:33;13.57;86.95
71184;DHT22;58887;51.980;4.464;2023-05-10T02:12:02;13.40;87.58
71184;DHT22;58887;51.980;4.464;2023-05-10T02:14:33;13.47;87.29
71184;DHT22;58887;51.980;4.464;2023-05-10T02:17:02;13.44;87.50
71184;DHT22;58887;51.980;4.464;2023-05-10T02:19:31;13.51;87.52
71184;DHT22;58887;51.980;4.464;2023-05-10T02:21:59;13.61;87.24
71184;DHT22;58887;51.980;4.464;2023-05-10T02:24:28;13.64;87.05
71184;DHT22;58887;51.980;4.464;2023-05-10T02:26:54;13.56;87.12
71184;DHT22;58887;51.980;4.464;2023-05-10T02:29:25;13.51;87.30
71184;DHT22;58887;51.980;4.464;2023-05-10T02:31:54;13.58;87.18
71184;DHT22;58887;51.980;4.464;2023-05-10T02:34:23;13.50;87.29
71184;DHT22;58887;51.980;4.464;2023-05-10T02:36:52;13.53;87.31
71184;DHT22;58887;51.980;4.464;2023-05-10T02:39:22;13.56;87.39
71184;DHT22;58887;51.980;4.464;2023-05-10T02:41:51;13.50;87.41
71184;DHT22;58887;51.980;4.464;2023-05-10T02:44:19;13.51;87.48
71184;DHT22;58887;51.980;4.464;2023-05-10T02:46:46;13.53;87.39
71184;DHT22;58887;51.980;4.464;2023-05-10T02:49:12;13.47;87.39
71184;DHT22;58887;51.980;4.464;2023-05-10T02:51:43;13.37;87.57
71184;DHT22;58887;51.980;4.464;2023-05-10T02:54:14;13.36;87.91
71184;DHT22;58887;51.980;4.464;2023-05-10T02:56:47;13.50;87.66
71184;DHT22;58887;51.980;4.464;2023-05-10T02:59:15;13.66;87.22
71184;DHT22;58887;51.980;4.464;2023-05-10T03:01:41;13.63;87.11
71184;DHT22;58887;51.980;4.464;2023-05-10T03:04:07;13.64;86.96
71184;DHT22;58887;51.980;4.464;2023-05-10T03:06:33;13.67;86.78
71184;DHT22;58887;51.980;4.464;2023-05-10T03:09:00;13.63;86.66
71184;DHT22;58887;51.980;4.464;2023-05-10T03:11:55;13.57;86.77
71184;DHT22;58887;51.980;4.464;2023-05-10T03:17:22;13.73;86.60
71184;DHT22;58887;51.980;4.464;2023-05-10T03:19:55;13.73;86.08
71184;DHT22;58887;51.980;4.464;2023-05-10T03:22:26;13.74;86.25
71184;DHT22;58887;51.980;4.464;2023-05-10T03:24:56;13.77;86.01
71184;DHT22;58887;51.980;4.464;2023-05-10T03:27:26;13.64;86.20
71184;DHT22;58887;51.980;4.464;2023-05-10T03:29:54;13.56;86.58
71184;DHT22;58887;51.980;4.464;2023-05-10T03:32:21;13.50;86.79
71184;DHT22;58887;51.980;4.464;2023-05-10T03:34:47;13.48;86.93
71184;DHT22;58887;51.980;4.464;2023-05-10T03:37:12;13.53;86.86
71184;DHT22;58887;51.980;4.464;2023-05-10T03:39:38;13.58;86.84
71184;DHT22;58887;51.980;4.464;2023-05-10T03:42:03;13.58;86.71
71184;DHT22;58887;51.980;4.464;2023-05-10T03:44:29;13.54;86.68
71184;DHT22;58887;51.980;4.464;2023-05-10T03:46:54;13.44;86.82
71184;DHT22;58887;51.980;4.464;2023-05-10T03:49:22;13.51;86.81
71184;DHT22;58887;51.980;4.464;2023-05-10T03:51:48;13.53;86.83
71184;DHT22;58887;51.980;4.464;2023-05-10T03:54:13;13.54;86.76
71184;DHT22;58887;51.980;4.464;2023-05-10T03:56:39;13.63;86.61
71184;DHT22;58887;51.980;4.464;2023-05-10T03:59:04;13.63;86.50
71184;DHT22;58887;51.980;4.464;2023-05-10T04:01:33;13.61;86.35
71184;DHT22;58887;51.980;4.464;2023-05-10T04:03:59;13.57;86.34
71184;DHT22;58887;51.980;4.464;2023-05-10T04:06:24;13.60;86.17
71184;DHT22;58887;51.980;4.464;2023-05-10T04:08:50;13.54;86.30
71184;DHT22;58887;51.980;4.464;2023-05-10T04:11:15;13.53;86.67
71184;DHT22;58887;51.980;4.464;2023-05-10T04:13:41;13.53;86.65
71184;DHT22;58887;51.980;4.464;2023-05-10T04:16:08;13.47;86.63
71184;DHT22;58887;51.980;4.464;2023-05-10T04:18:34;13.48;86.68
71184;DHT22;58887;51.980;4.464;2023-05-10T04:21:00;13.39;86.75
71184;DHT22;58887;51.980;4.464;2023-05-10T04:23:27;13.26;86.98
71184;DHT22;58887;51.980;4.464;2023-05-10T04:25:59;13.22;86.98
71184;DHT22;58887;51.980;4.464;2023-05-10T04:28:24;13.26;86.93
71184;DHT22;58887;51.980;4.464;2023-05-10T04:30:50;13.17;87.42
71184;DHT22;58887;51.980;4.464;2023-05-10T04:33:15;13.12;87.34
71184;DHT22;58887;51.980;4.464;2023-05-10T04:35:41;13.02;87.34
71184;DHT22;58887;51.980;4.464;2023-05-10T04:38:06;12.99;87.72
71184;DHT22;58887;51.980;4.464;2023-05-10T04:40:33;12.89;87.91
71184;DHT22;58887;51.980;4.464;2023-05-10T04:42:59;12.81;87.99
71184;DHT22;58887;51.980;4.464;2023-05-10T04:45:24;12.84;88.23
71184;DHT22;58887;51.980;4.464;2023-05-10T04:47:51;12.89;88.11
71184;DHT22;58887;51.980;4.464;2023-05-10T04:50:18;12.96;88.05
71184;DHT22;58887;51.980;4.464;2023-05-10T04:52:43;12.99;88.21
71184;DHT22;58887;51.980;4.464;2023-05-10T04:55:09;12.93;87.76
71184;DHT22;58887;51.980;4.464;2023-05-10T04:57:35;13.03;87.10
71184;DHT22;58887;51.980;4.464;2023-05-10T05:00:02;13.05;87.34
71184;DHT22;58887;51.980;4.464;2023-05-10T05:02:28;13.03;87.20
71184;DHT22;58887;51.980;4.464;2023-05-10T05:04:55;13.05;87.17
71184;DHT22;58887;51.980;4.464;2023-05-10T05:07:23;13.03;87.07
71184;DHT22;58887;51.980;4.464;2023-05-10T05:09:49;13.19;87.15
71184;DHT22;58887;51.980;4.464;2023-05-10T05:12:15;13.17;86.64
71184;DHT22;58887;51.980;4.464;2023-05-10T05:14:40;13.22;86.55
71184;DHT22;58887;51.980;4.464;2023-05-10T05:17:06;13.19;86.62
71184;DHT22;58887;51.980;4.464;2023-05-10T05:19:32;13.19;86.40
71184;DHT22;58887;51.980;4.464;2023-05-10T05:21:58;13.19;86.14
71184;DHT22;58887;51.980;4.464;2023-05-10T05:24:23;13.17;86.18
71184;DHT22;58887;51.980;4.464;2023-05-10T05:26:49;13.16;86.16
71184;DHT22;58887;51.980;4.464;2023-05-10T05:29:14;13.22;85.99
71184;DHT22;58887;51.980;4.464;2023-05-10T05:31:40;13.20;85.50
71184;DHT22;58887;51.980;4.464;2023-05-10T05:34:05;13.19;85.61
71184;DHT22;58887;51.980;4.464;2023-05-10T05:36:31;13.27;85.88
71184;DHT22;58887;51.980;4.464;2023-05-10T05:38:57;13.20;86.00
71184;DHT22;58887;51.980;4.464;2023-05-10T05:41:22;13.19;85.85
71184;DHT22;58887;51.980;4.464;2023-05-10T05:43:50;13.29;86.03
71184;DHT22;58887;51.980;4.464;2023-05-10T05:46:15;13.39;85.78
71184;DHT22;58887;51.980;4.464;2023-05-10T05:48:40;13.44;85.71
71184;DHT22;58887;51.980;4.464;2023-05-10T05:51:06;13.40;85.36
71184;DHT22;58887;51.980;4.464;2023-05-10T05:53:31;13.51;85.88
71184;DHT22;58887;51.980;4.464;2023-05-10T05:55:58;13.68;86.05
71184;DHT22;58887;51.980;4.464;2023-05-10T05:58:24;13.87;85.20
71184;DHT22;58887;51.980;4.464;2023-05-10T06:00:51;13.89;84.73
71184;DHT22;58887;51.980;4.464;2023-05-10T06:03:17;13.91;84.81
71184;DHT22;58887;51.980;4.464;2023-05-10T06:05:43;14.04;84.78
71184;DHT22;58887;51.980;4.464;2023-05-10T06:08:09;14.04;84.32
71184;DHT22;58887;51.980;4.464;2023-05-10T06:10:36;13.87;83.79
71184;DHT22;58887;51.980;4.464;2023-05-10T06:13:02;14.06;84.36
71184;DHT22;58887;51.980;4.464;2023-05-10T06:15:28;14.35;84.03
71184;DHT22;58887;51.980;4.464;2023-05-10T06:17:53;14.55;84.02
71184;DHT22;58887;51.980;4.464;2023-05-10T06:20:19;14.60;82.84
71184;DHT22;58887;51.980;4.464;2023-05-10T06:22:53;14.88;83.44
71184;DHT22;58887;51.980;4.464;2023-05-10T06:25:21;15.18;82.45
71184;DHT22;58887;51.980;4.464;2023-05-10T06:27:49;15.42;82.46
71184;DHT22;58887;51.980;4.464;2023-05-10T06:30:21;15.41;81.66
71184;DHT22;58887;51.980;4.464;2023-05-10T06:32:52;15.34;80.26
71184;DHT22;58887;51.980;4.464;2023-05-10T06:35:18;15.15;80.53
71184;DHT22;58887;51.980;4.464;2023-05-10T06:37:45;15.10;80.79
71184;DHT22;58887;51.980;4.464;2023-05-10T06:40:17;15.17;81.08
71184;DHT22;58887;51.980;4.464;2023-05-10T06:42:46;15.32;80.62
71184;DHT22;58887;51.980;4.464;2023-05-10T06:45:12;15.30;80.81
71184;DHT22;58887;51.980;4.464;2023-05-10T06:47:38;15.34;80.85
71184;DHT22;58887;51.980;4.464;2023-05-10T06:50:03;15.39;80.62
71184;DHT22;58887;51.980;4.464;2023-05-10T06:52:35;15.52;80.42
71184;DHT22;58887;51.980;4.464;2023-05-10T06:55:04;15.42;80.34
71184;DHT22;58887;51.980;4.464;2023-05-10T06:57:31;15.48;79.92
71184;DHT22;58887;51.980;4.464;2023-05-10T07:00:05;15.51;79.95
71184;DHT22;58887;51.980;4.464;2023-05-10T07:02:32;15.32;79.76
71184;DHT22;58887;51.980;4.464;2023-05-10T07:04:58;15.18;80.24
71184;DHT22;58887;51.980;4.464;2023-05-10T07:07:23;15.20;80.80
71184;DHT22;58887;51.980;4.464;2023-05-10T07:09:56;15.23;80.80
71184;DHT22;58887;51.980;4.464;2023-05-10T07:12:30;15.25;81.37
71184;DHT22;58887;51.980;4.464;2023-05-10T07:15:08;15.15;80.56
71184;DHT22;58887;51.980;4.464;2023-05-10T07:17:46;15.10;80.94
71184;DHT22;58887;51.980;4.464;2023-05-10T07:26:55;15.44;80.67
71184;DHT22;58887;51.980;4.464;2023-05-10T07:29:25;15.18;80.20
71184;DHT22;58887;51.980;4.464;2023-05-10T07:31:56;14.83;81.20
71184;DHT22;58887;51.980;4.464;2023-05-10T07:34:25;14.79;81.75
71184;DHT22;58887;51.980;4.464;2023-05-10T07:36:52;14.74;81.26
71184;DHT22;58887;51.980;4.464;2023-05-10T07:39:19;14.74;82.42
71184;DHT22;58887;51.980;4.464;2023-05-10T07:41:53;14.88;82.35
71184;DHT22;58887;51.980;4.464;2023-05-10T07:44:21;14.95;81.72
71184;DHT22;58887;51.980;4.464;2023-05-10T07:46:47;15.04;81.32
71184;DHT22;58887;51.980;4.464;2023-05-10T07:49:13;14.84;81.17
71184;DHT22;58887;51.980;4.464;2023-05-10T07:51:41;14.97;81.89
71184;DHT22;58887;51.980;4.464;2023-05-10T07:54:09;14.98;82.00
71184;DHT22;58887;51.980;4.464;2023-05-10T07:56:39;15.17;81.32
71184;DHT22;58887;51.980;4.464;2023-05-10T08:05:14;15.61;80.60
71184;DHT22;58887;51.980;4.464;2023-05-10T08:07:41;15.69;80.41
71184;DHT22;58887;51.980;4.464;2023-05-10T08:10:14;15.79;79.84
71184;DHT22;58887;51.980;4.464;2023-05-10T08:12:47;15.69;79.49
71184;DHT22;58887;51.980;4.464;2023-05-10T08:15:24;15.73;79.62
71184;DHT22;58887;51.980;4.464;2023-05-10T08:24:36;15.81;77.78
71184;DHT22;58887;51.980;4.464;2023-05-10T08:27:07;15.76;78.02
71184;DHT22;58887;51.980;4.464;2023-05-10T08:32:59;15.75;78.26
71184;DHT22;58887;51.980;4.464;2023-05-10T08:35:25;15.79;78.76
71184;DHT22;58887;51.980;4.464;2023-05-10T08:38:11;15.83;78.96
71184;DHT22;58887;51.980;4.464;2023-05-10T08:40:44;15.96;78.99
71184;DHT22;58887;51.980;4.464;2023-05-10T08:43:35;16.13;78.80
71184;DHT22;58887;51.980;4.464;2023-05-10T08:46:22;16.27;77.84
71184;DHT22;58887;51.980;4.464;2023-05-10T09:01:36;16.17;76.67
71184;DHT22;58887;51.980;4.464;2023-05-10T09:04:03;16.28;77.72
71184;DHT22;58887;51.980;4.464;2023-05-10T09:06:29;16.21;77.29
71184;DHT22;58887;51.980;4.464;2023-05-10T09:08:55;16.06;77.50
71184;DHT22;58887;51.980;4.464;2023-05-10T09:11:21;16.04;78.64
71184;DHT22;58887;51.980;4.464;2023-05-10T09:13:48;16.18;78.17
71184;DHT22;58887;51.980;4.464;2023-05-10T09:16:16;16.33;76.99
71184;DHT22;58887;51.980;4.464;2023-05-10T09:18:41;16.35;77.42
71184;DHT22;58887;51.980;4.464;2023-05-10T09:21:09;16.48;77.26
71184;DHT22;58887;51.980;4.464;2023-05-10T09:23:35;16.45;75.74
71184;DHT22;58887;51.980;4.464;2023-05-10T09:26:05;16.24;76.04
71184;DHT22;58887;51.980;4.464;2023-05-10T09:28:34;16.50;77.06
71184;DHT22;58887;51.980;4.464;2023-05-10T09:31:15;16.60;77.22
71184;DHT22;58887;51.980;4.464;2023-05-10T09:33:44;17.10;76.33
71184;DHT22;58887;51.980;4.464;2023-05-10T09:36:11;17.15;75.69
71184;DHT22;58887;51.980;4.464;2023-05-10T09:38:48;17.19;75.51
71184;DHT22;58887;51.980;4.464;2023-05-10T09:41:23;17.18;74.46
71184;DHT22;58887;51.980;4.464;2023-05-10T09:43:50;17.53;75.47
71184;DHT22;58887;51.980;4.464;2023-05-10T09:46:16;17.91;72.54
71184;DHT22;58887;51.980;4.464;2023-05-10T09:48:47;18.71;71.20
71184;DHT22;58887;51.980;4.464;2023-05-10T09:51:20;19.27;69.77
71184;DHT22;58887;51.980;4.464;2023-05-10T09:53:47;19.24;69.89
71184;DHT22;58887;51.980;4.464;2023-05-10T09:56:12;19.41;67.45
71184;DHT22;58887;51.980;4.464;2023-05-10T09:59:02;18.49;67.76
71184;DHT22;58887;51.980;4.464;2023-05-10T10:01:29;18.18;70.89
71184;DHT22;58887;51.980;4.464;2023-05-10T10:04:09;17.85;70.36
71184;DHT22;58887;51.980;4.464;2023-05-10T10:06:38;17.54;70.62
71184;DHT22;58887;51.980;4.464;2023-05-10T10:12:29;17.50;71.97
71184;DHT22;58887;51.980;4.464;2023-05-10T10:15:10;17.69;72.10
71184;DHT22;58887;51.980;4.464;2023-05-10T10:20:59;17.82;71.38
71184;DHT22;58887;51.980;4.464;2023-05-10T10:27:13;18.15;71.73
71184;DHT22;58887;51.980;4.464;2023-05-10T10:30:02;18.15;70.67
71184;DHT22;58887;51.980;4.464;2023-05-10T10:32:59;18.11;69.33
71184;DHT22;58887;51.980;4.464;2023-05-10T10:35:29;18.80;68.60
71184;DHT22;58887;51.980;4.464;2023-05-10T10:38:22;18.39;69.22
71184;DHT22;58887;51.980;4.464;2023-05-10T10:41:28;18.45;70.72
71184;DHT22;58887;51.980;4.464;2023-05-10T10:50:10;18.98;67.77
71184;DHT22;58887;51.980;4.464;2023-05-10T10:52:50;18.43;69.04
71184;DHT22;58887;51.980;4.464;2023-05-10T10:55:25;17.71;69.77
71184;DHT22;58887;51.980;4.464;2023-05-10T10:57:55;17.32;72.00
71184;DHT22;58887;51.980;4.464;2023-05-10T11:00:33;17.37;72.07
71184;DHT22;58887;51.980;4.464;2023-05-10T11:03:09;17.26;73.21
71184;DHT22;58887;51.980;4.464;2023-05-10T11:05:57;17.15;72.27
71184;DHT22;58887;51.980;4.464;2023-05-10T11:08:41;16.83;72.80
71184;DHT22;58887;51.980;4.464;2023-05-10T11:11:08;16.57;74.20
71184;DHT22;58887;51.980;4.464;2023-05-10T11:13:48;17.01;74.34
71184;DHT22;58887;51.980;4.464;2023-05-10T11:16:24;17.43;73.17
71184;DHT22;58887;51.980;4.464;2023-05-10T11:19:11;17.54;71.67
71184;DHT22;58887;51.980;4.464;2023-05-10T11:24:29;17.77;70.79
71184;DHT22;58887;51.980;4.464;2023-05-10T11:26:55;17.69;69.47
71184;DHT22;58887;51.980;4.464;2023-05-10T11:29:21;17.74;71.98
71184;DHT22;58887;51.980;4.464;2023-05-10T11:31:48;17.85;69.89
71184;DHT22;58887;51.980;4.464;2023-05-10T11:34:25;17.87;69.96
71184;DHT22;58887;51.980;4.464;2023-05-10T11:36:53;17.94;70.41
71184;DHT22;58887;51.980;4.464;2023-05-10T11:39:20;18.57;68.51
71184;DHT22;58887;51.980;4.464;2023-05-10T11:41:48;18.39;69.17
71184;DHT22;58887;51.980;4.464;2023-05-10T11:44:14;18.26;68.60
71184;DHT22;58887;51.980;4.464;2023-05-10T11:46:40;18.55;68.17
71184;DHT22;58887;51.980;4.464;2023-05-10T11:49:07;18.56;68.09
71184;DHT22;58887;51.980;4.464;2023-05-10T11:51:34;18.05;68.80
71184;DHT22;58887;51.980;4.464;2023-05-10T11:54:06;18.30;68.06
71184;DHT22;58887;51.980;4.464;2023-05-10T11:56:33;18.16;67.16
71184;DHT22;58887;51.980;4.464;2023-05-10T11:58:58;17.91;68.32
71184;DHT22;58887;51.980;4.464;2023-05-10T12:01:26;17.90;69.21
71184;DHT22;58887;51.980;4.464;2023-05-10T12:03:54;17.69;68.77
71184;DHT22;58887;51.980;4.464;2023-05-10T12:06:21;17.43;70.36
71184;DHT22;58887;51.980;4.464;2023-05-10T12:08:48;17.10;71.19
71184;DHT22;58887;51.980;4.464;2023-05-10T12:11:17;16.86;71.32
71184;DHT22;58887;51.980;4.464;2023-05-10T12:13:44;16.85;72.89
71184;DHT22;58887;51.980;4.464;2023-05-10T12:16:13;16.72;72.30
71184;DHT22;58887;51.980;4.464;2023-05-10T12:18:40;16.65;72.67
71184;DHT22;58887;51.980;4.464;2023-05-10T12:21:10;16.41;73.63
71184;DHT22;58887;51.980;4.464;2023-05-10T12:23:37;16.40;74.05
71184;DHT22;58887;51.980;4.464;2023-05-10T12:26:03;16.60;72.86
71184;DHT22;58887;51.980;4.464;2023-05-10T12:28:30;16.85;72.71
71184;DHT22;58887;51.980;4.464;2023-05-10T12:30:59;16.78;71.76
71184;DHT22;58887;51.980;4.464;2023-05-10T12:33:25;16.78;72.33
71184;DHT22;58887;51.980;4.464;2023-05-10T12:35:52;17.05;72.14
71184;DHT22;58887;51.980;4.464;2023-05-10T12:38:38;16.99;71.82
71184;DHT22;58887;51.980;4.464;2023-05-10T12:41:09;17.26;71.61
71184;DHT22;58887;51.980;4.464;2023-05-10T12:43:36;17.50;70.94
71184;DHT22;58887;51.980;4.464;2023-05-10T12:46:09;17.46;70.58
71184;DHT22;58887;51.980;4.464;2023-05-10T12:48:36;17.51;70.88
71184;DHT22;58887;51.980;4.464;2023-05-10T12:51:03;17.51;69.53
71184;DHT22;58887;51.980;4.464;2023-05-10T12:53:29;18.02;69.96
71184;DHT22;58887;51.980;4.464;2023-05-10T12:55:55;18.49;67.82
71184;DHT22;58887;51.980;4.464;2023-05-10T12:58:23;18.38;66.44
71184;DHT22;58887;51.980;4.464;2023-05-10T13:00:50;17.87;69.35
71184;DHT22;58887;51.980;4.464;2023-05-10T13:03:17;17.69;68.68
71184;DHT22;58887;51.980;4.464;2023-05-10T13:05:45;17.39;69.79
71184;DHT22;58887;51.980;4.464;2023-05-10T13:08:13;17.51;70.61
71184;DHT22;58887;51.980;4.464;2023-05-10T13:10:40;17.57;70.06
71184;DHT22;58887;51.980;4.464;2023-05-10T13:13:10;17.57;69.70
71184;DHT22;58887;51.980;4.464;2023-05-10T13:15:35;17.66;69.71
71184;DHT22;58887;51.980;4.464;2023-05-10T13:18:01;17.53;70.16
71184;DHT22;58887;51.980;4.464;2023-05-10T13:20:26;17.64;70.18
71184;DHT22;58887;51.980;4.464;2023-05-10T13:22:52;17.71;69.34
71184;DHT22;58887;51.980;4.464;2023-05-10T13:25:20;17.67;69.03
71184;DHT22;58887;51.980;4.464;2023-05-10T13:27:45;17.23;69.74
71184;DHT22;58887;51.980;4.464;2023-05-10T13:30:11;17.12;69.69
71184;DHT22;58887;51.980;4.464;2023-05-10T13:32:37;16.86;71.13
71184;DHT22;58887;51.980;4.464;2023-05-10T13:35:06;17.08;71.13
71184;DHT22;58887;51.980;4.464;2023-05-10T13:37:33;17.36;71.47
71184;DHT22;58887;51.980;4.464;2023-05-10T13:40:03;17.33;69.21
71184;DHT22;58887;51.980;4.464;2023-05-10T13:42:29;17.54;69.99
71184;DHT22;58887;51.980;4.464;2023-05-10T13:44:54;17.63;70.13
71184;DHT22;58887;51.980;4.464;2023-05-10T13:47:40;17.74;68.89
71184;DHT22;58887;51.980;4.464;2023-05-10T13:50:16;17.75;69.85
71184;DHT22;58887;51.980;4.464;2023-05-10T13:52:44;17.95;69.21
71184;DHT22;58887;51.980;4.464;2023-05-10T13:55:09;18.04;68.40
71184;DHT22;58887;51.980;4.464;2023-05-10T13:57:42;17.75;68.51
71184;DHT22;58887;51.980;4.464;2023-05-10T14:00:08;17.54;69.68
71184;DHT22;58887;51.980;4.464;2023-05-10T14:02:35;17.12;70.03
71184;DHT22;58887;51.980;4.464;2023-05-10T14:05:10;17.19;70.42
71184;DHT22;58887;51.980;4.464;2023-05-10T14:07:43;17.40;71.03
71184;DHT22;58887;51.980;4.464;2023-05-10T14:10:08;17.34;70.32
71184;DHT22;58887;51.980;4.464;2023-05-10T14:12:34;17.39;69.94
71184;DHT22;58887;51.980;4.464;2023-05-10T14:14:59;17.50;69.72
71184;DHT22;58887;51.980;4.464;2023-05-10T14:17:25;17.64;70.83
71184;DHT22;58887;51.980;4.464;2023-05-10T14:19:52;17.82;70.37
71184;DHT22;58887;51.980;4.464;2023-05-10T14:22:18;17.78;69.88
71184;DHT22;58887;51.980;4.464;2023-05-10T14:24:46;17.77;69.85
71184;DHT22;58887;51.980;4.464;2023-05-10T14:27:15;17.50;70.52
71184;DHT22;58887;51.980;4.464;2023-05-10T14:29:43;17.30;70.56
71184;DHT22;58887;51.980;4.464;2023-05-10T14:32:09;17.30;71.16
71184;DHT22;58887;51.980;4.464;2023-05-10T14:34:50;17.26;70.87
71184;DHT22;58887;51.980;4.464;2023-05-10T14:37:20;17.22;71.05
71184;DHT22;58887;51.980;4.464;2023-05-10T14:39:46;17.29;70.68
71184;DHT22;58887;51.980;4.464;2023-05-10T14:42:12;17.37;70.28
71184;DHT22;58887;51.980;4.464;2023-05-10T14:44:40;17.60;70.63
71184;DHT22;58887;51.980;4.464;2023-05-10T14:47:06;17.64;70.05
71184;DHT22;58887;51.980;4.464;2023-05-10T14:49:35;17.43;69.33
71184;DHT22;58887;51.980;4.464;2023-05-10T14:52:02;17.39;70.40
71184;DHT22;58887;51.980;4.464;2023-05-10T14:54:28;17.53;69.88
71184;DHT22;58887;51.980;4.464;2023-05-10T14:56:55;17.78;70.47
71184;DHT22;58887;51.980;4.464;2023-05-10T14:59:22;17.95;69.88
71184;DHT22;58887;51.980;4.464;2023-05-10T15:01:59;17.85;68.64
71184;DHT22;58887;51.980;4.464;2023-05-10T15:04:30;17.97;68.56
71184;DHT22;58887;51.980;4.464;2023-05-10T15:06:57;17.87;68.99
71184;DHT22;58887;51.980;4.464;2023-05-10T15:09:25;17.84;69.84
71184;DHT22;58887;51.980;4.464;2023-05-10T15:12:06;17.74;69.30
71184;DHT22;58887;51.980;4.464;2023-05-10T15:14:32;17.55;68.81
71184;DHT22;58887;51.980;4.464;2023-05-10T15:17:00;17.50;69.18
71184;DHT22;58887;51.980;4.464;2023-05-10T15:19:32;17.51;69.67
71184;DHT22;58887;51.980;4.464;2023-05-10T15:22:05;17.77;69.80
71184;DHT22;58887;51.980;4.464;2023-05-10T15:24:36;17.84;68.76
71184;DHT22;58887;51.980;4.464;2023-05-10T15:27:09;17.91;68.96
71184;DHT22;58887;51.980;4.464;2023-05-10T15:29:35;17.92;68.66
71184;DHT22;58887;51.980;4.464;2023-05-10T15:32:10;17.78;68.07
71184;DHT22;58887;51.980;4.464;2023-05-10T15:34:36;17.74;69.12
71184;DHT22;58887;51.980;4.464;2023-05-10T15:37:04;17.57;68.64
71184;DHT22;58887;51.980;4.464;2023-05-10T15:39:34;17.70;69.22
71184;DHT22;58887;51.980;4.464;2023-05-10T15:42:01;17.82;68.78
71184;DHT22;58887;51.980;4.464;2023-05-10T15:44:28;17.82;68.50
71184;DHT22;58887;51.980;4.464;2023-05-10T15:46:54;17.98;67.53
71184;DHT22;58887;51.980;4.464;2023-05-10T15:49:21;17.90;67.82
71184;DHT22;58887;51.980;4.464;2023-05-10T15:51:47;17.54;68.87
71184;DHT22;58887;51.980;4.464;2023-05-10T15:54:14;17.53;68.80
71184;DHT22;58887;51.980;4.464;2023-05-10T15:56:40;17.71;68.90
71184;DHT22;58887;51.980;4.464;2023-05-10T15:59:06;17.78;68.38
71184;DHT22;58887;51.980;4.464;2023-05-10T16:01:34;17.81;69.37
71184;DHT22;58887;51.980;4.464;2023-05-10T16:04:13;17.85;68.46
71184;DHT22;58887;51.980;4.464;2023-05-10T16:06:40;17.78;68.66
71184;DHT22;58887;51.980;4.464;2023-05-10T16:09:07;17.73;69.42
71184;DHT22;58887;51.980;4.464;2023-05-10T16:11:32;17.75;69.78
71184;DHT22;58887;51.980;4.464;2023-05-10T16:14:00;17.69;68.90
71184;DHT22;58887;51.980;4.464;2023-05-10T16:16:36;17.63;69.07
71184;DHT22;58887;51.980;4.464;2023-05-10T16:19:01;17.50;69.26
71184;DHT22;58887;51.980;4.464;2023-05-10T16:21:32;17.61;69.50
71184;DHT22;58887;51.980;4.464;2023-05-10T16:23:59;17.59;69.42
71184;DHT22;58887;51.980;4.464;2023-05-10T16:26:29;17.64;69.23
71184;DHT22;58887;51.980;4.464;2023-05-10T16:29:02;17.82;68.52
71184;DHT22;58887;51.980;4.464;2023-05-10T16:31:38;17.69;67.94
71184;DHT22;58887;51.980;4.464;2023-05-10T16:34:10;17.69;68.51
71184;DHT22;58887;51.980;4.464;2023-05-10T16:36:36;17.55;70.37
71184;DHT22;58887;51.980;4.464;2023-05-10T16:39:05;17.55;70.19
71184;DHT22;58887;51.980;4.464;2023-05-10T16:41:34;17.34;70.53
71184;DHT22;58887;51.980;4.464;2023-05-10T16:44:00;17.12;71.39
71184;DHT22;58887;51.980;4.464;2023-05-10T16:46:27;16.91;72.24
71184;DHT22;58887;51.980;4.464;2023-05-10T16:48:52;16.82;72.57
71184;DHT22;58887;51.980;4.464;2023-05-10T16:51:18;16.79;72.66